createdAt,value
2022-11-23T00:00:24.077Z,29.20
2022-11-23T00:05:27.858Z,36.40
2022-11-23T00:10:29.701Z,34.70
2022-11-23T00:15:32.597Z,38.50
2022-11-23T00:20:34.451Z,31.50
2022-11-23T00:25:36.489Z,32.50
2022-11-23T00:30:38.517Z,33.90
2022-11-23T00:35:40.378Z,33.30
2022-11-23T00:40:42.233Z,37.70
2022-11-23T00:45:44.324Z,37.60
2022-11-23T00:50:46.158Z,29.20
2022-11-23T00:55:55.518Z,37.70
2022-11-23T01:01:12.841Z,37.40
2022-11-23T01:06:17.862Z,34.50
2022-11-23T01:11:21.901Z,40.90
2022-11-23T01:16:29.665Z,40.90
2022-11-23T01:21:33.460Z,48.50
2022-11-23T01:26:35.333Z,45.40
2022-11-23T01:31:40.600Z,49.10
2022-11-23T01:36:49.037Z,44.20
2022-11-23T01:41:50.936Z,40.40
2022-11-23T01:46:52.936Z,35.90
2022-11-23T01:51:59.744Z,43.40
2022-11-23T01:57:06.629Z,43.30
2022-11-23T02:02:08.718Z,36.90
2022-11-23T02:07:11.627Z,51.40
2022-11-23T02:12:14.524Z,50.10
2022-11-23T02:17:19.088Z,42.70
2022-11-23T02:22:38.012Z,44.30
2022-11-23T02:27:46.776Z,45.10
2022-11-23T02:32:49.176Z,42.20
2022-11-23T02:37:53.799Z,49.40
2022-11-23T02:42:55.727Z,37.40
2022-11-23T02:47:57.556Z,54.40
2022-11-23T02:52:59.435Z,40.50
2022-11-23T02:58:01.890Z,46.00
2022-11-23T03:03:04.952Z,53.50
2022-11-23T03:08:08.050Z,37.20
2022-11-23T03:13:09.988Z,49.90
2022-11-23T03:18:13.623Z,55.20
2022-11-23T03:23:15.582Z,46.30
2022-11-23T03:28:19.122Z,43.70
2022-11-23T03:33:21.510Z,51.90
2022-11-23T03:38:23.889Z,49.90
2022-11-23T03:43:26.367Z,44.80
2022-11-23T03:48:28.250Z,37.10
2022-11-23T03:53:30.145Z,49.70
2022-11-23T03:58:32.106Z,36.70
2022-11-23T04:03:34.517Z,41.40
2022-11-23T04:08:56.203Z,41.60
2022-11-23T04:14:19.695Z,50.30
2022-11-23T04:19:22.996Z,56.20
2022-11-23T04:24:24.923Z,36.80
2022-11-23T04:29:28.625Z,43.10
2022-11-23T04:34:31.387Z,44.20
2022-11-23T04:39:35.360Z,47.20
2022-11-23T04:45:03.831Z,42.80
2022-11-23T04:50:06.434Z,38.30
2022-11-23T04:55:09.059Z,39.70
2022-11-23T05:00:15.832Z,45.30
2022-11-23T05:05:18.301Z,39.10
2022-11-23T05:10:20.232Z,41.90
2022-11-23T05:15:22.628Z,49.80
2022-11-23T05:20:25.391Z,53.50
2022-11-23T05:25:27.580Z,60.70
2022-11-23T05:30:36.622Z,54.60
2022-11-23T05:35:39.302Z,54.20
2022-11-23T05:40:41.183Z,49.70
2022-11-23T05:45:43.721Z,55.70
2022-11-23T05:50:46.368Z,53.90
2022-11-23T05:56:08.292Z,61.10
2022-11-23T06:01:16.826Z,55.40
2022-11-23T06:06:19.164Z,56.60
2022-11-23T06:11:21.063Z,39.10
2022-11-23T06:16:23.147Z,56.30
2022-11-23T06:21:34.008Z,56.60
2022-11-23T06:26:36.106Z,54.90
2022-11-23T06:31:39.035Z,58.40
2022-11-23T06:36:41.107Z,42.20
2022-11-23T06:41:43.607Z,56.30
2022-11-23T06:46:45.790Z,54.90
2022-11-23T06:51:48.231Z,51.80
2022-11-23T06:56:50.091Z,48.00
2022-11-23T07:01:52.379Z,49.10
2022-11-23T07:06:54.836Z,43.30
2022-11-23T07:12:05.899Z,39.50
2022-11-23T07:17:07.853Z,39.40
2022-11-23T07:22:12.916Z,41.90
2022-11-23T07:27:17.318Z,41.10
2022-11-23T07:32:19.555Z,42.30
2022-11-23T07:37:21.642Z,45.40
2022-11-23T07:42:33.003Z,42.60
2022-11-23T07:47:36.980Z,45.70
2022-11-23T07:52:40.563Z,40.60
2022-11-23T07:57:42.344Z,42.40
2022-11-23T08:03:04.096Z,46.60
2022-11-23T08:08:06.064Z,39.40
2022-11-23T08:13:07.860Z,43.90
2022-11-23T08:18:10.078Z,35.50
2022-11-23T08:23:11.903Z,44.80
2022-11-23T08:28:13.800Z,41.70
2022-11-23T08:33:15.975Z,43.00
2022-11-23T08:38:17.818Z,50.30
2022-11-23T08:43:19.635Z,46.30
2022-11-23T08:48:21.560Z,50.30
2022-11-23T08:53:23.359Z,41.40
2022-11-23T08:58:25.186Z,37.90
2022-11-23T09:03:27.150Z,43.40
2022-11-23T09:08:29.263Z,39.50
2022-11-23T09:13:31.103Z,43.50
2022-11-23T09:18:36.697Z,39.30
2022-11-23T09:23:38.652Z,42.40
2022-11-23T09:28:44.673Z,46.00
2022-11-23T09:33:47.102Z,46.20
2022-11-23T09:38:56.635Z,39.30
2022-11-23T09:44:35.664Z,46.30
2022-11-23T09:50:15.915Z,50.60
2022-11-23T09:55:30.657Z,34.70
2022-11-23T10:00:39.019Z,43.70
2022-11-23T10:05:41.021Z,44.90
2022-11-23T10:11:29.633Z,41.30
2022-11-23T10:16:45.397Z,47.20
2022-11-23T10:21:47.204Z,36.10
2022-11-23T10:26:50.277Z,39.70
2022-11-23T10:31:56.979Z,43.30
2022-11-23T10:36:59.340Z,39.00
2022-11-23T10:42:09.916Z,34.80
2022-11-23T10:47:11.703Z,41.80
2022-11-23T10:52:29.938Z,42.30
2022-11-23T10:57:42.450Z,31.10
2022-11-23T11:02:47.678Z,38.20
2022-11-23T11:07:49.725Z,31.70
2022-11-23T11:12:51.964Z,36.70
2022-11-23T11:17:58.650Z,29.50
2022-11-23T11:23:04.536Z,33.90
2022-11-23T11:28:42.969Z,27.60
2022-11-23T11:34:14.463Z,32.00
2022-11-23T11:39:28.097Z,34.70
2022-11-23T11:44:36.357Z,28.40
2022-11-23T11:49:45.561Z,21.90
2022-11-23T11:55:04.609Z,23.70
2022-11-23T12:00:13.499Z,22.60
2022-11-23T12:05:25.032Z,23.90
2022-11-23T12:10:35.548Z,24.80
2022-11-23T12:15:50.575Z,21.50
2022-11-23T12:21:06.788Z,21.90
2022-11-23T12:26:42.606Z,21.50
2022-11-23T12:31:50.724Z,28.40
2022-11-23T12:37:05.255Z,27.70
2022-11-23T12:42:18.303Z,25.00
2022-11-23T12:47:41.202Z,19.50
2022-11-23T12:53:17.643Z,24.90
2022-11-23T12:58:27.511Z,27.60
2022-11-23T13:03:59.556Z,16.20
2022-11-23T13:09:35.958Z,22.60
2022-11-23T13:14:49.697Z,22.00
2022-11-23T13:20:28.713Z,17.60
2022-11-23T13:25:30.633Z,17.90
2022-11-23T13:31:15.028Z,22.90
2022-11-23T13:36:07.452Z,21.20
2022-11-23T13:41:34.589Z,21.60
2022-11-23T13:46:37.298Z,18.10
2022-11-23T13:51:39.214Z,25.70
2022-11-23T13:56:45.128Z,21.60
2022-11-23T14:02:12.678Z,22.90
2022-11-23T14:07:20.704Z,23.20
2022-11-23T14:12:46.911Z,25.10
2022-11-23T14:18:51.094Z,29.70
2022-11-23T14:24:33.305Z,23.00
2022-11-23T14:30:05.530Z,24.60
2022-11-23T14:35:40.630Z,22.30
2022-11-23T14:41:21.556Z,21.90
2022-11-23T14:46:25.934Z,25.20
2022-11-23T14:51:28.778Z,25.80
2022-11-23T14:56:38.027Z,23.70
2022-11-23T15:01:47.189Z,26.10
2022-11-23T15:06:53.444Z,23.20
2022-11-23T15:12:07.271Z,30.30
2022-11-23T15:17:17.574Z,26.40
2022-11-23T15:27:28.591Z,21.30
2022-11-23T15:32:34.368Z,32.40
2022-11-23T15:37:44.651Z,26.30
2022-11-23T15:42:49.827Z,26.20
2022-11-23T15:47:51.628Z,28.80
2022-11-23T15:52:53.490Z,27.80
2022-11-23T15:57:56.796Z,30.00
2022-11-23T16:03:27.150Z,20.70
2022-11-23T16:13:36.692Z,25.60
2022-11-23T16:18:44.859Z,23.30
2022-11-23T16:23:54.411Z,21.60
2022-11-23T16:28:58.676Z,25.70
2022-11-23T16:34:00.462Z,23.60
2022-11-23T16:39:05.672Z,21.40
2022-11-23T16:44:08.004Z,28.10
2022-11-23T16:49:19.871Z,23.50
2022-11-23T16:54:24.854Z,25.60
2022-11-23T16:59:27.420Z,27.60
2022-11-23T17:04:29.341Z,30.70
2022-11-23T17:09:31.605Z,27.50
2022-11-23T17:14:38.191Z,31.40
2022-11-23T17:19:40.079Z,27.00
2022-11-23T17:24:42.784Z,27.80
2022-11-23T17:29:45.915Z,25.80
2022-11-23T17:34:47.744Z,22.40
2022-11-23T17:39:50.224Z,30.20
2022-11-23T17:44:52.048Z,24.30
2022-11-23T17:49:53.959Z,26.10
2022-11-23T17:54:55.775Z,27.60
2022-11-23T18:00:01.984Z,31.00
2022-11-23T18:05:19.726Z,31.00
2022-11-23T18:10:23.620Z,30.90
2022-11-23T18:15:25.396Z,31.90
2022-11-23T18:20:27.202Z,33.70
2022-11-23T18:25:29.114Z,37.80
2022-11-23T18:30:31.024Z,28.40
2022-11-23T18:35:32.825Z,34.60
2022-11-23T18:40:34.728Z,31.10
2022-11-23T18:45:36.585Z,30.70
2022-11-23T18:50:38.389Z,30.90
2022-11-23T18:55:40.213Z,25.60
2022-11-23T19:00:42.404Z,28.90
2022-11-23T19:05:44.238Z,28.60
2022-11-23T19:10:46.402Z,29.70
2022-11-23T19:15:48.268Z,24.80
2022-11-23T19:20:50.111Z,26.60
2022-11-23T19:25:51.980Z,26.60
2022-11-23T19:30:53.865Z,26.60
2022-11-23T19:35:55.676Z,23.90
2022-11-23T19:40:57.501Z,26.20
2022-11-23T19:46:01.789Z,30.20
2022-11-23T19:51:04.893Z,30.40
2022-11-23T19:56:15.428Z,35.60
2022-11-23T20:01:19.251Z,32.60
2022-11-23T20:06:26.373Z,37.20
2022-11-23T20:11:30.440Z,31.40
2022-11-23T20:16:33.158Z,29.30
2022-11-23T20:21:37.017Z,26.70
2022-11-23T20:26:39.791Z,28.40
2022-11-23T20:31:41.865Z,29.10
2022-11-23T20:36:43.853Z,27.10
2022-11-23T20:41:46.019Z,34.90
2022-11-23T20:47:04.075Z,27.60
2022-11-23T20:52:06.190Z,27.40
2022-11-23T20:57:07.983Z,32.70
2022-11-23T21:02:09.911Z,23.50
2022-11-23T21:07:12.122Z,27.00
2022-11-23T21:12:52.585Z,26.20
2022-11-23T21:17:54.395Z,29.60
2022-11-23T21:22:56.598Z,25.40
2022-11-23T21:27:58.447Z,27.00
2022-11-23T21:33:00.386Z,31.20
2022-11-23T21:38:02.191Z,33.40
2022-11-23T21:43:04.390Z,31.10
2022-11-23T21:48:07.922Z,36.20
2022-11-23T21:53:09.777Z,31.80
2022-11-23T21:58:11.956Z,34.70
2022-11-23T22:03:13.864Z,33.60
2022-11-23T22:08:31.057Z,28.30
2022-11-23T22:13:39.810Z,31.80
2022-11-23T22:18:41.997Z,24.30
2022-11-23T22:23:44.923Z,31.80
2022-11-23T22:28:48.710Z,30.20
2022-11-23T22:33:53.188Z,28.90
2022-11-23T22:39:03.105Z,27.50
2022-11-23T22:44:07.634Z,27.40
2022-11-23T22:49:09.614Z,26.10
2022-11-23T22:54:11.428Z,25.10
2022-11-23T22:59:13.308Z,32.00
2022-11-23T23:04:15.159Z,34.50
2022-11-23T23:09:17.260Z,34.70
2022-11-23T23:14:19.095Z,35.40
2022-11-23T23:19:21.620Z,24.10
2022-11-23T23:24:23.475Z,32.00
2022-11-23T23:29:25.442Z,30.90
2022-11-23T23:34:27.265Z,31.80
2022-11-23T23:39:29.139Z,32.10
2022-11-23T23:44:31.406Z,32.00
2022-11-23T23:49:34.604Z,24.20
2022-11-23T23:54:36.593Z,29.70
2022-11-23T23:59:38.500Z,26.00
